createdAt,value
2022-12-22T00:00:14.563Z,6.68
2022-12-22T00:02:59.489Z,7.65
2022-12-22T00:05:44.700Z,7.07
2022-12-22T00:08:30.010Z,6.05
2022-12-22T00:11:15.780Z,6.28
2022-12-22T00:14:03.425Z,5.88
2022-12-22T00:16:51.961Z,6.47
2022-12-22T00:19:37.245Z,5.90
2022-12-22T00:22:40.316Z,5.65
2022-12-22T00:25:26.088Z,5.65
2022-12-22T00:28:10.756Z,5.80
2022-12-22T00:30:56.206Z,6.45
2022-12-22T00:33:41.002Z,6.70
2022-12-22T00:36:28.720Z,6.50
2022-12-22T00:39:13.535Z,6.43
2022-12-22T00:41:58.243Z,6.47
2022-12-22T00:44:43.420Z,6.07
2022-12-22T00:47:33.446Z,6.85
2022-12-22T00:50:18.626Z,6.53
2022-12-22T00:53:03.306Z,7.47
2022-12-22T00:55:50.519Z,8.15
2022-12-22T00:58:38.243Z,8.50
2022-12-22T01:01:23.542Z,7.82
2022-12-22T01:04:08.600Z,8.60
2022-12-22T01:06:54.341Z,8.52
2022-12-22T01:09:41.127Z,8.13
2022-12-22T01:12:36.421Z,6.88
2022-12-22T01:15:21.665Z,6.75
2022-12-22T01:18:06.602Z,6.82
2022-12-22T01:20:51.338Z,6.70
2022-12-22T01:23:36.051Z,6.95
2022-12-22T01:26:20.899Z,6.13
2022-12-22T01:29:05.616Z,6.32
2022-12-22T01:31:51.349Z,6.45
2022-12-22T01:34:35.948Z,7.15
2022-12-22T01:37:20.791Z,6.97
2022-12-22T01:40:05.404Z,7.15
2022-12-22T01:42:53.147Z,7.10
2022-12-22T01:45:55.323Z,7.57
2022-12-22T01:48:46.161Z,8.23
2022-12-22T01:51:35.938Z,7.70
2022-12-22T01:54:21.262Z,7.45
2022-12-22T01:57:07.064Z,7.55
2022-12-22T01:59:52.410Z,7.65
2022-12-22T02:02:39.658Z,7.70
2022-12-22T02:05:27.427Z,7.30
2022-12-22T02:08:34.944Z,7.93
2022-12-22T02:11:31.410Z,7.95
2022-12-22T02:14:29.904Z,8.27
2022-12-22T02:17:40.196Z,8.35
2022-12-22T02:20:37.143Z,9.43
2022-12-22T02:23:43.388Z,8.90
2022-12-22T02:26:48.679Z,8.88
2022-12-22T02:29:37.933Z,8.98
2022-12-22T02:32:24.182Z,9.35
2022-12-22T02:35:09.518Z,9.15
2022-12-22T02:38:23.047Z,9.23
2022-12-22T02:41:22.341Z,10.38
2022-12-22T02:44:26.304Z,10.10
2022-12-22T02:47:20.739Z,9.80
2022-12-22T02:50:31.205Z,10.05
2022-12-22T02:53:16.976Z,9.02
2022-12-22T02:56:01.718Z,9.50
2022-12-22T02:58:51.315Z,10.02
2022-12-22T03:01:36.656Z,9.55
2022-12-22T03:04:21.732Z,9.93
2022-12-22T03:07:06.691Z,9.85
2022-12-22T03:09:51.660Z,10.52
2022-12-22T03:12:36.418Z,9.52
2022-12-22T03:15:21.586Z,9.65
2022-12-22T03:18:06.441Z,10.48
2022-12-22T03:20:51.185Z,9.98
2022-12-22T03:23:36.102Z,9.27
2022-12-22T03:26:02.694Z,9.55
2022-12-22T03:28:29.090Z,9.73
2022-12-22T03:31:03.865Z,9.35
2022-12-22T03:33:31.341Z,10.05
2022-12-22T03:35:58.450Z,9.95
2022-12-22T03:38:25.446Z,9.52
2022-12-22T03:40:51.909Z,10.32
2022-12-22T03:43:37.003Z,10.23
2022-12-22T03:46:16.306Z,10.48
2022-12-22T03:48:44.251Z,10.15
2022-12-22T03:51:11.123Z,10.07
2022-12-22T03:53:37.442Z,9.88
2022-12-22T03:56:07.808Z,10.57
2022-12-22T03:58:34.499Z,10.25
2022-12-22T04:01:06.193Z,10.00
2022-12-22T04:03:32.893Z,10.32
2022-12-22T04:05:59.692Z,9.95
2022-12-22T04:08:26.004Z,9.48
2022-12-22T04:11:10.981Z,9.48
2022-12-22T04:13:37.278Z,9.77
2022-12-22T04:16:03.649Z,9.88
2022-12-22T04:18:29.982Z,9.35
2022-12-22T04:20:56.295Z,9.82
2022-12-22T04:23:22.674Z,9.70
2022-12-22T04:25:49.073Z,8.90
2022-12-22T04:28:15.439Z,8.85
2022-12-22T04:30:41.767Z,9.20
2022-12-22T04:33:08.083Z,10.23
2022-12-22T04:35:34.456Z,9.20
2022-12-22T04:38:00.787Z,9.13
2022-12-22T04:40:27.097Z,9.43
2022-12-22T04:42:53.420Z,9.25
2022-12-22T04:45:19.752Z,9.88
2022-12-22T04:47:46.064Z,8.88
2022-12-22T04:50:12.404Z,9.68
2022-12-22T04:52:38.693Z,12.35
2022-12-22T04:55:07.034Z,9.57
2022-12-22T04:57:40.083Z,10.20
2022-12-22T05:00:07.772Z,9.25
2022-12-22T05:02:34.229Z,9.75
2022-12-22T05:05:00.666Z,9.25
2022-12-22T05:07:27.001Z,10.02
2022-12-22T05:09:53.319Z,9.40
2022-12-22T05:12:38.334Z,10.25
2022-12-22T05:15:05.046Z,9.65
2022-12-22T05:17:31.396Z,10.48
2022-12-22T05:19:57.709Z,9.85
2022-12-22T05:22:24.042Z,12.13
2022-12-22T05:24:50.339Z,11.10
2022-12-22T05:27:16.659Z,10.40
2022-12-22T05:29:43.011Z,10.52
2022-12-22T05:32:09.334Z,10.15
2022-12-22T05:34:35.649Z,11.43
2022-12-22T05:37:01.941Z,11.95
2022-12-22T05:39:28.243Z,11.73
2022-12-22T05:41:54.555Z,11.95
2022-12-22T05:44:20.844Z,11.48
2022-12-22T05:46:50.430Z,12.30
2022-12-22T05:49:16.738Z,11.23
2022-12-22T05:51:43.087Z,11.07
2022-12-22T05:54:10.555Z,11.50
2022-12-22T05:56:37.116Z,10.63
2022-12-22T05:59:03.977Z,10.30
2022-12-22T06:01:30.287Z,13.68
2022-12-22T06:04:00.409Z,11.55
2022-12-22T06:06:27.209Z,10.48
2022-12-22T06:08:53.519Z,11.25
2022-12-22T06:11:20.407Z,12.93
2022-12-22T06:13:46.922Z,10.55
2022-12-22T06:16:13.305Z,11.27
2022-12-22T06:18:39.839Z,12.55
2022-12-22T06:21:06.158Z,16.98
2022-12-22T06:23:32.511Z,11.02
2022-12-22T06:26:01.537Z,11.73
2022-12-22T06:28:28.625Z,11.40
2022-12-22T06:30:55.345Z,11.40
2022-12-22T06:33:22.081Z,10.63
2022-12-22T06:35:53.681Z,10.70
2022-12-22T06:38:24.125Z,11.32
2022-12-22T06:40:50.405Z,10.55
2022-12-22T06:43:16.699Z,11.90
2022-12-22T06:45:43.620Z,12.88
2022-12-22T06:48:12.231Z,10.95
2022-12-22T06:50:38.753Z,10.10
2022-12-22T06:53:05.579Z,11.73
2022-12-22T06:55:31.915Z,10.98
2022-12-22T06:57:58.261Z,10.93
2022-12-22T07:00:24.923Z,11.82
2022-12-22T07:02:51.429Z,10.43
2022-12-22T07:05:17.879Z,12.15
2022-12-22T07:07:44.332Z,12.68
2022-12-22T07:10:11.295Z,11.35
2022-12-22T07:12:37.710Z,12.60
2022-12-22T07:15:04.766Z,12.00
2022-12-22T07:17:31.104Z,13.35
2022-12-22T07:19:57.514Z,11.75
2022-12-22T07:22:29.594Z,10.82
2022-12-22T07:24:56.905Z,11.48
2022-12-22T07:27:23.330Z,9.98
2022-12-22T07:29:49.666Z,10.55
2022-12-22T07:32:16.051Z,10.50
2022-12-22T07:34:42.384Z,10.70
2022-12-22T07:37:08.708Z,10.25
2022-12-22T07:39:35.006Z,10.05
2022-12-22T07:42:20.081Z,9.50
2022-12-22T07:44:46.380Z,10.10
2022-12-22T07:47:12.696Z,9.73
2022-12-22T07:49:57.745Z,10.63
2022-12-22T07:52:24.116Z,9.82
2022-12-22T07:54:50.413Z,10.85
2022-12-22T07:57:16.733Z,10.05
2022-12-22T07:59:43.060Z,9.73
2022-12-22T08:07:01.432Z,9.77
2022-12-22T08:09:27.732Z,9.00
2022-12-22T08:11:54.062Z,8.98
2022-12-22T08:14:20.389Z,9.23
2022-12-22T08:16:46.782Z,8.23
2022-12-22T08:19:13.264Z,9.10
2022-12-22T08:21:39.636Z,9.45
2022-12-22T08:24:06.633Z,9.30
2022-12-22T08:26:46.238Z,9.38
2022-12-22T08:29:38.380Z,8.68
2022-12-22T08:32:04.994Z,7.43
2022-12-22T08:34:31.681Z,8.52
2022-12-22T08:37:00.734Z,8.70
2022-12-22T08:39:32.351Z,8.45
2022-12-22T08:41:59.769Z,7.93
2022-12-22T08:44:28.547Z,7.57
2022-12-22T08:46:56.528Z,7.68
2022-12-22T08:49:23.693Z,7.28
2022-12-22T08:51:50.650Z,6.38
2022-12-22T08:54:17.552Z,7.55
2022-12-22T08:56:44.935Z,7.93
2022-12-22T08:59:11.735Z,8.15
2022-12-22T09:01:42.575Z,8.80
2022-12-22T09:06:40.865Z,9.05
2022-12-22T09:09:10.373Z,9.88
2022-12-22T09:11:37.061Z,9.70
2022-12-22T09:14:04.706Z,9.50
2022-12-22T09:16:32.664Z,10.10
2022-12-22T09:18:59.961Z,11.32
2022-12-22T09:21:26.346Z,10.10
2022-12-22T09:23:52.881Z,8.32
2022-12-22T09:26:21.669Z,10.38
2022-12-22T09:28:50.453Z,10.05
2022-12-22T09:31:17.227Z,10.45
2022-12-22T09:33:43.741Z,10.88
2022-12-22T09:36:15.191Z,10.35
2022-12-22T09:38:42.325Z,10.60
2022-12-22T09:41:27.491Z,9.35
2022-12-22T09:43:56.248Z,10.35
2022-12-22T09:46:29.332Z,10.52
2022-12-22T09:48:55.915Z,9.55
2022-12-22T09:51:27.014Z,10.68
2022-12-22T09:53:59.681Z,11.27
2022-12-22T09:56:27.613Z,11.18
2022-12-22T09:58:54.372Z,12.40
2022-12-22T10:01:52.030Z,11.65
2022-12-22T10:04:57.560Z,10.65
2022-12-22T10:07:37.044Z,5.68
2022-12-22T10:10:24.878Z,11.10
2022-12-22T10:12:54.280Z,9.70
2022-12-22T10:15:22.203Z,7.82
2022-12-22T10:17:53.729Z,8.20
2022-12-22T10:20:26.463Z,8.88
2022-12-22T10:22:58.810Z,8.30
2022-12-22T10:26:17.010Z,10.85
2022-12-22T10:28:51.625Z,11.30
2022-12-22T10:31:21.475Z,10.88
2022-12-22T10:33:50.432Z,10.77
2022-12-22T10:36:32.089Z,6.63
2022-12-22T10:39:02.539Z,8.82
2022-12-22T10:41:32.760Z,5.75
2022-12-22T10:44:15.826Z,9.40
2022-12-22T10:46:49.693Z,8.63
2022-12-22T10:49:23.211Z,7.10
2022-12-22T10:51:55.538Z,7.53
2022-12-22T10:54:35.884Z,4.70
2022-12-22T10:57:28.780Z,5.93
2022-12-22T11:00:21.052Z,6.97
2022-12-22T11:02:51.942Z,4.40
2022-12-22T11:05:18.689Z,7.70
2022-12-22T11:07:47.282Z,4.28
2022-12-22T11:10:45.792Z,4.13
2022-12-22T11:13:54.856Z,5.05
2022-12-22T11:16:33.361Z,4.38
2022-12-22T11:19:24.494Z,6.40
2022-12-22T11:22:18.613Z,5.72
2022-12-22T11:25:13.903Z,5.53
2022-12-22T11:28:00.506Z,5.43
2022-12-22T11:30:51.880Z,5.75
2022-12-22T11:33:32.355Z,7.32
2022-12-22T11:36:04.955Z,6.22
2022-12-22T11:39:03.675Z,7.75
2022-12-22T11:42:01.603Z,5.95
2022-12-22T11:44:46.431Z,4.10
2022-12-22T11:47:26.249Z,4.72
2022-12-22T11:50:59.670Z,4.97
2022-12-22T11:53:23.686Z,5.05
2022-12-22T11:56:23.956Z,4.47
2022-12-22T11:59:19.714Z,5.65
2022-12-22T12:02:01.439Z,7.35
2022-12-22T12:04:40.138Z,8.45
2022-12-22T12:07:28.403Z,8.35
2022-12-22T12:10:35.132Z,6.47
2022-12-22T12:13:16.874Z,8.57
2022-12-22T12:15:53.844Z,8.43
2022-12-22T12:18:53.270Z,10.70
2022-12-22T12:21:44.283Z,9.63
2022-12-22T12:26:59.640Z,7.57
2022-12-22T12:29:32.467Z,11.65
2022-12-22T12:32:06.419Z,11.63
2022-12-22T12:34:37.440Z,11.00
2022-12-22T12:37:10.406Z,12.35
2022-12-22T12:39:48.774Z,11.93
2022-12-22T12:42:38.807Z,12.15
2022-12-22T12:45:43.995Z,10.82
2022-12-22T12:48:25.458Z,12.27
2022-12-22T12:50:57.403Z,10.98
2022-12-22T12:53:28.712Z,8.82
2022-12-22T12:56:04.613Z,9.63
2022-12-22T12:58:40.057Z,7.90
2022-12-22T13:01:11.593Z,5.78
2022-12-22T13:04:02.471Z,6.07
2022-12-22T13:06:49.999Z,7.80
2022-12-22T13:12:32.950Z,5.35
2022-12-22T13:15:01.264Z,6.25
2022-12-22T13:17:50.008Z,7.05
2022-12-22T13:20:34.817Z,4.93
2022-12-22T13:23:10.466Z,3.95
2022-12-22T13:25:52.870Z,4.47
2022-12-22T13:28:21.397Z,5.05
2022-12-22T13:30:56.661Z,7.22
2022-12-22T13:33:26.944Z,9.27
2022-12-22T13:35:58.727Z,9.63
2022-12-22T13:38:33.703Z,10.35
2022-12-22T13:41:04.655Z,9.40
2022-12-22T13:43:32.229Z,10.50
2022-12-22T13:46:02.149Z,11.40
2022-12-22T13:48:45.615Z,9.73
2022-12-22T13:51:24.496Z,11.07
2022-12-22T13:54:13.388Z,10.45
2022-12-22T13:56:43.256Z,10.52
2022-12-22T13:59:29.574Z,10.00
2022-12-22T14:02:09.202Z,10.85
2022-12-22T14:04:37.672Z,10.20
2022-12-22T14:07:14.824Z,9.55
2022-12-22T14:09:45.450Z,10.32
2022-12-22T14:12:16.456Z,9.95
2022-12-22T14:14:45.692Z,10.23
2022-12-22T14:17:33.791Z,10.07
2022-12-22T14:20:03.324Z,10.82
2022-12-22T14:22:42.703Z,9.15
2022-12-22T14:25:31.799Z,10.48
2022-12-22T14:27:59.203Z,8.73
2022-12-22T14:30:38.478Z,10.32
2022-12-22T14:33:36.569Z,10.90
2022-12-22T14:36:23.900Z,9.63
2022-12-22T14:39:02.530Z,9.52
2022-12-22T19:03:29.810Z,11.45
2022-12-22T19:05:57.057Z,11.63
2022-12-22T19:08:27.909Z,11.65
2022-12-22T19:10:57.573Z,13.35
2022-12-22T19:13:33.109Z,12.30
2022-12-22T19:16:00.140Z,11.73
2022-12-22T19:18:27.869Z,10.65
2022-12-22T19:20:55.714Z,10.48
2022-12-22T19:23:24.267Z,9.05
2022-12-22T19:25:55.324Z,7.85
2022-12-22T19:30:55.222Z,6.47
2022-12-22T19:33:33.510Z,6.72
2022-12-22T19:36:01.092Z,5.45
2022-12-22T19:38:28.499Z,7.00
2022-12-22T19:41:00.196Z,6.30
2022-12-22T19:43:26.839Z,6.15
2022-12-22T19:45:53.905Z,6.28
2022-12-22T19:48:26.391Z,5.80
2022-12-22T19:50:53.833Z,6.10
2022-12-22T19:53:20.991Z,6.13
2022-12-22T19:55:56.500Z,5.18
2022-12-22T19:58:32.494Z,6.03
2022-12-22T20:00:58.920Z,5.13
2022-12-22T20:03:26.024Z,5.43
2022-12-22T20:05:53.058Z,4.90
2022-12-22T20:08:19.503Z,4.75
2022-12-22T20:10:46.406Z,4.75
2022-12-22T20:13:19.131Z,4.82
2022-12-22T20:15:45.811Z,5.10
2022-12-22T20:18:21.287Z,5.22
2022-12-22T20:20:57.522Z,5.35
2022-12-22T20:23:24.880Z,4.13
2022-12-22T20:25:58.370Z,4.35
2022-12-22T20:28:27.927Z,4.97
2022-12-22T20:30:55.642Z,5.07
2022-12-22T20:33:24.560Z,4.82
2022-12-22T20:35:52.847Z,4.57
2022-12-22T20:38:30.643Z,4.63
2022-12-22T20:40:57.291Z,4.78
2022-12-22T20:43:25.767Z,3.60
2022-12-22T20:45:55.123Z,5.22
2022-12-22T20:48:38.234Z,4.78
2022-12-22T20:51:07.249Z,4.55
2022-12-22T20:53:34.217Z,4.05
2022-12-22T20:56:01.526Z,2.92
2022-12-22T20:58:32.930Z,4.32
2022-12-22T21:01:01.836Z,4.63
2022-12-22T21:03:28.462Z,3.00
2022-12-22T21:05:54.905Z,5.00
2022-12-22T21:08:24.048Z,4.57
2022-12-22T21:10:52.018Z,5.68
2022-12-22T21:13:19.261Z,5.32
2022-12-22T21:15:49.192Z,4.25
2022-12-22T21:18:19.766Z,6.13
2022-12-22T21:20:47.053Z,5.35
2022-12-22T21:23:16.279Z,5.75
2022-12-22T21:25:46.752Z,6.35
2022-12-22T21:28:31.302Z,7.28
2022-12-22T21:30:57.786Z,6.35
2022-12-22T21:33:24.206Z,5.53
2022-12-22T21:35:51.394Z,5.88
2022-12-22T21:38:21.631Z,7.03
2022-12-22T21:40:48.062Z,6.17
2022-12-22T21:43:15.289Z,5.13
2022-12-22T21:45:43.132Z,7.45
2022-12-22T21:48:15.969Z,7.40
2022-12-22T21:50:42.597Z,8.20
2022-12-22T21:53:08.979Z,6.35
2022-12-22T21:55:38.025Z,6.35
2022-12-22T21:58:06.119Z,6.80
2022-12-22T22:00:34.018Z,6.45
2022-12-22T22:03:04.569Z,6.03
2022-12-22T22:05:36.241Z,7.22
2022-12-22T22:08:05.356Z,6.95
2022-12-22T22:10:34.519Z,5.72
2022-12-22T22:13:01.597Z,6.20
2022-12-22T22:15:29.018Z,5.93
2022-12-22T22:17:58.695Z,5.97
2022-12-22T22:20:31.776Z,6.13
2022-12-22T22:22:59.425Z,6.82
2022-12-22T22:25:26.385Z,7.40
2022-12-22T22:27:52.833Z,6.40
2022-12-22T22:30:20.930Z,6.47
2022-12-22T22:32:50.632Z,7.43
2022-12-22T22:35:20.777Z,8.68
2022-12-22T22:37:50.572Z,5.25
2022-12-22T22:40:19.872Z,5.43
2022-12-22T22:42:46.274Z,5.60
2022-12-22T22:45:22.766Z,4.35
2022-12-22T22:47:50.803Z,5.55
2022-12-22T22:50:18.803Z,6.80
2022-12-22T22:52:45.212Z,6.68
2022-12-22T22:55:12.682Z,6.15
2022-12-22T22:57:39.034Z,6.22
2022-12-22T23:00:06.992Z,5.32
2022-12-22T23:02:33.452Z,5.65
2022-12-22T23:04:59.976Z,6.88
2022-12-22T23:07:26.500Z,6.00
2022-12-22T23:09:52.805Z,5.60
2022-12-22T23:12:19.147Z,6.20
2022-12-22T23:14:45.484Z,7.07
2022-12-22T23:17:11.840Z,6.75
2022-12-22T23:19:38.460Z,5.60
2022-12-22T23:22:04.971Z,7.22
2022-12-22T23:24:31.332Z,6.35
2022-12-22T23:26:58.230Z,5.93
2022-12-22T23:29:24.575Z,6.35
2022-12-22T23:31:50.920Z,6.78
2022-12-22T23:34:17.353Z,6.10
2022-12-22T23:36:43.661Z,6.47
2022-12-22T23:39:10.910Z,6.75
2022-12-22T23:41:37.212Z,5.68
2022-12-22T23:44:03.687Z,7.07
2022-12-22T23:46:30.088Z,7.00
2022-12-22T23:48:58.144Z,8.20
2022-12-22T23:51:27.150Z,6.30
2022-12-22T23:53:54.933Z,7.88
2022-12-22T23:56:21.358Z,7.50
2022-12-22T23:58:52.571Z,7.10
